Time;durP1;ratioP1;P1;durP2;ratioP2;P2;SDS_P1;SDS_P2;PMS_P1;PMS_P2;Temp;Humidity;BMP_temperature;BMP_pressure;BME280_temperature;BME280_humidity;BME280_pressure;Samples;Min_cycle;Max_cycle;Signal;HPM_P1;HPM_P2
2022/06/10 00:01:12;;;;;;;6.22;5.50;;;;;;;12.24;100.00;101110.66;4932769;24;20047;-84
2022/06/10 00:03:44;;;;;;;5.93;5.32;;;;;;;12.20;100.00;101116.91;4830139;29;20056;-84
2022/06/10 00:06:12;;;;;;;7.05;5.88;;;;;;;12.16;100.00;101121.38;4845389;29;20045;-84
2022/06/10 00:08:47;;;;;;;10.45;5.97;;;;;;;12.13;100.00;101128.53;4826046;29;20601;-83
2022/06/10 00:11:14;;;;;;;6.47;5.70;;;;;;;12.07;100.00;101121.56;4827219;29;20041;-83
2022/06/10 00:13:43;;;;;;;6.45;5.72;;;;;;;11.99;100.00;101128.78;4831692;29;20041;-83
2022/06/10 00:16:10;;;;;;;6.13;5.05;;;;;;;11.91;100.00;101138.66;4845721;29;20053;-84
2022/06/10 00:18:37;;;;;;;7.00;5.60;;;;;;;11.93;100.00;101136.84;4844104;29;20073;-84
2022/06/10 00:21:06;;;;;;;6.97;5.60;;;;;;;11.93;100.00;101139.47;4829906;29;20051;-84
2022/06/10 00:23:33;;;;;;;6.30;4.57;;;;;;;11.85;100.00;101139.63;4844720;29;20049;-83
2022/06/10 00:26:00;;;;;;;6.53;4.85;;;;;;;11.83;100.00;101144.06;4856569;29;20060;-84
2022/06/10 00:28:27;;;;;;;5.78;5.05;;;;;;;11.78;100.00;101140.63;4833491;29;20037;-84
2022/06/10 00:30:54;;;;;;;6.78;5.82;;;;;;;11.78;100.00;101136.19;4859093;29;20049;-83
2022/06/10 00:33:21;;;;;;;5.50;5.00;;;;;;;11.76;100.00;101143.28;4860406;29;20506;-83
2022/06/10 00:35:47;;;;;;;6.50;5.25;;;;;;;11.76;100.00;101150.34;4829512;29;20410;-83
2022/06/10 00:38:14;;;;;;;5.47;4.95;;;;;;;11.76;100.00;101156.50;4848686;29;20049;-84
2022/06/10 00:40:49;;;;;;;7.20;5.22;;;;;;;11.64;100.00;101159.38;4831720;29;20057;-85
2022/06/10 00:43:19;;;;;;;6.10;4.70;;;;;;;11.63;100.00;101168.22;4848697;29;20713;-84
2022/06/10 00:45:55;;;;;;;5.72;4.65;;;;;;;11.53;100.00;101169.28;4831915;29;20463;-85
2022/06/10 00:48:53;;;;;;;6.20;5.07;;;;;;;11.45;100.00;101169.41;4845391;29;20084;-83
2022/06/10 00:51:29;;;;;;;5.68;4.57;;;;;;;11.42;100.00;101165.91;4851672;29;20735;-84
2022/06/10 00:54:07;;;;;;;6.28;4.78;;;;;;;11.37;100.00;101171.28;4844176;29;20049;-84
2022/06/10 00:56:36;;;;;;;8.35;5.20;;;;;;;11.33;100.00;101172.22;4816501;29;20045;-83
2022/06/10 00:59:05;;;;;;;5.40;4.78;;;;;;;11.30;100.00;101174.06;4813215;29;20140;-83
2022/06/10 01:01:32;;;;;;;5.25;4.47;;;;;;;11.28;100.00;101176.72;4844415;29;20049;-83
2022/06/10 01:04:01;;;;;;;6.70;5.40;;;;;;;11.25;100.00;101182.03;4851687;29;20053;-83
2022/06/10 01:06:28;;;;;;;6.50;5.25;;;;;;;11.20;100.00;101186.53;4832319;29;20048;-83
2022/06/10 01:08:56;;;;;;;6.22;5.28;;;;;;;11.16;100.00;101184.81;4831182;29;20049;-83
2022/06/10 01:11:28;;;;;;;5.25;4.75;;;;;;;11.12;100.00;101185.78;4859763;29;20057;-83
2022/06/10 01:14:28;;;;;;;6.50;4.85;;;;;;;11.09;100.00;101188.44;4847834;29;20055;-83
2022/06/10 01:17:12;;;;;;;6.20;5.47;;;;;;;11.05;100.00;101192.03;4869228;29;20437;-83
2022/06/10 01:19:55;;;;;;;6.30;5.07;;;;;;;11.02;100.00;101194.75;4862877;29;20116;-83
2022/06/10 01:22:34;;;;;;;6.53;5.77;;;;;;;10.96;100.00;101196.56;4832184;29;20049;-84
2022/06/10 01:25:37;;;;;;;8.40;6.05;;;;;;;10.91;100.00;101203.66;4861011;29;20464;-83
2022/06/10 01:28:31;;;;;;;6.03;4.60;;;;;;;10.85;100.00;101197.59;4846870;29;20041;-83
2022/06/10 01:31:11;;;;;;;6.07;5.00;;;;;;;10.80;100.00;101199.44;4861768;29;20072;-83
2022/06/10 01:33:44;;;;;;;5.20;4.50;;;;;;;10.79;100.00;101202.97;4845170;29;20048;-83
2022/06/10 01:36:21;;;;;;;6.75;4.85;;;;;;;10.76;100.00;101197.69;4862255;29;20060;-82
2022/06/10 01:38:58;;;;;;;5.13;4.60;;;;;;;10.67;100.00;101202.19;4845474;29;20053;-83
2022/06/10 01:41:40;;;;;;;7.28;4.60;;;;;;;10.64;100.00;101201.38;4846363;29;20049;-83
2022/06/10 01:44:27;;;;;;;6.60;4.35;;;;;;;10.58;100.00;101193.53;4845004;29;20053;-83
2022/06/10 01:47:15;;;;;;;5.13;4.30;;;;;;;10.53;100.00;101198.88;4846542;29;20206;-83
2022/06/10 01:50:10;;;;;;;5.53;4.07;;;;;;;10.52;100.00;101201.53;4860706;29;20703;-83
2022/06/10 01:52:42;;;;;;;;;;;;;;;10.49;100.00;101204.19;4846910;29;20101;-83
2022/06/10 01:55:18;;;;;;;5.25;4.20;;;;;;;10.46;100.00;101209.53;4859871;29;19960;-83
2022/06/10 01:58:05;;;;;;;5.45;4.15;;;;;;;10.48;100.00;101207.72;4831574;29;20059;-83
2022/06/10 02:00:36;;;;;;;6.55;4.50;;;;;;;10.47;100.00;101206.84;4841426;29;20075;-83
2022/06/10 02:03:16;;;;;;;6.00;4.30;;;;;;;10.38;100.00;101209.59;4845284;29;20499;-83
2022/06/10 02:05:51;;;;;;;5.47;4.25;;;;;;;10.36;100.00;101214.03;4860220;29;20127;-84
2022/06/10 02:08:27;;;;;;;4.70;4.28;;;;;;;10.30;100.00;101222.03;4861788;29;20049;-83
2022/06/10 02:11:05;;;;;;;5.43;4.28;;;;;;;10.29;100.00;101223.78;4829143;29;20045;-83
2022/06/10 02:13:35;;;;;;;5.40;4.50;;;;;;;10.23;100.00;101225.59;4860426;29;20049;-83
2022/06/10 02:16:04;;;;;;;5.47;4.22;;;;;;;10.16;100.00;101225.63;4856917;29;20041;-84
2022/06/10 02:18:37;;;;;;;5.93;4.35;;;;;;;10.13;100.00;101222.16;4833509;29;20107;-83
2022/06/10 02:21:12;;;;;;;5.00;3.90;;;;;;;10.34;100.00;101229.00;4852836;29;20418;-83
2022/06/10 02:23:43;;;;;;;5.55;4.30;;;;;;;10.32;100.00;101241.34;4856642;29;20053;-83
2022/06/10 02:26:10;;;;;;;4.75;3.65;;;;;;;10.21;100.00;101235.28;4827921;29;20056;-83
2022/06/10 02:28:41;;;;;;;5.97;4.35;;;;;;;10.14;100.00;101237.97;4840554;29;20048;-84
2022/06/10 02:31:23;;;;;;;5.78;4.68;;;;;;;10.10;100.00;101241.56;4844599;29;20506;-82
2022/06/10 02:33:49;;;;;;;4.95;3.90;;;;;;;10.04;100.00;101241.59;4846501;29;20441;-83
2022/06/10 02:36:38;;;;;;;5.25;3.83;;;;;;;10.06;100.00;101236.28;4830636;29;20037;-83
2022/06/10 02:39:18;;;;;;;4.10;3.45;;;;;;;10.03;100.00;101238.97;4837027;29;20053;-83
2022/06/10 02:42:13;;;;;;;4.97;3.85;;;;;;;10.00;100.00;101241.63;4849560;29;20045;-83
2022/06/10 02:44:50;;;;;;;5.57;3.88;;;;;;;9.94;100.00;101242.56;4846672;29;20426;-83
2022/06/10 02:47:43;;;;;;;6.28;4.82;;;;;;;9.90;100.00;101251.38;4831222;29;20049;-83
2022/06/10 02:50:14;;;;;;;4.95;3.85;;;;;;;9.86;100.00;101247.03;4845301;29;20119;-84
2022/06/10 02:52:41;;;;;;;4.05;3.65;;;;;;;9.84;100.00;101249.69;4846567;29;20045;-84
2022/06/10 02:55:17;;;;;;;4.50;3.45;;;;;;;9.86;100.00;101250.56;4845068;29;20048;-84
2022/06/10 03:01:13;;;;;;;5.30;4.65;;;;;;;9.94;100.00;101266.31;4895505;23;20052;-84
2022/06/10 03:03:51;;;;;;;4.38;3.97;;;;;;;9.99;100.00;101267.16;4899176;29;20108;-84
2022/06/10 03:06:31;;;;;;;5.45;4.05;;;;;;;9.96;100.00;101261.91;4899430;29;20048;-83
2022/06/10 03:09:09;;;;;;;4.15;3.58;;;;;;;9.95;100.00;101268.06;4866233;29;20083;-84
2022/06/10 03:11:48;;;;;;;5.75;4.03;;;;;;;9.98;100.00;101273.31;4864869;29;20040;-85
2022/06/10 03:14:21;;;;;;;5.32;3.92;;;;;;;9.91;100.00;101276.00;4887649;29;20044;-85
2022/06/10 03:17:04;;;;;;;4.32;3.58;;;;;;;9.88;100.00;101279.56;4883029;29;20048;-86
2022/06/10 03:20:02;;;;;;;4.80;3.72;;;;;;;9.93;100.00;101283.06;4893844;29;20049;-85
2022/06/10 03:23:02;;;;;;;4.30;3.90;;;;;;;9.94;100.00;101286.56;4845246;29;20069;-83
2022/06/10 03:25:36;;;;;;;5.15;4.38;;;;;;;9.92;100.00;101285.69;4880555;29;20040;-84
2022/06/10 03:28:25;;;;;;;5.53;3.97;;;;;;;10.01;100.00;101291.78;4880338;29;20127;-84
2022/06/10 03:30:55;;;;;;;5.68;4.45;;;;;;;9.99;100.00;101297.94;4878262;29;20047;-84
2022/06/10 03:33:34;;;;;;;5.18;4.30;;;;;;;10.01;100.00;101299.72;4864837;29;20494;-84
2022/06/10 03:36:09;;;;;;;6.28;4.50;;;;;;;10.11;100.00;101293.47;4863694;29;20048;-83
2022/06/10 03:38:42;;;;;;;4.85;4.22;;;;;;;10.12;100.00;101296.97;4878774;29;20056;-85
2022/06/10 03:41:19;;;;;;;6.30;5.00;;;;;;;10.23;100.00;101308.34;4864529;29;20036;-85
2022/06/10 03:43:46;;;;;;;6.22;4.90;;;;;;;10.28;100.00;101305.69;4865853;29;20048;-85
2022/06/10 03:46:13;;;;;;;5.57;4.90;;;;;;;10.31;100.00;101313.56;4879485;29;20044;-85
2022/06/10 03:48:42;;;;;;;7.05;4.20;;;;;;;10.27;100.00;101322.41;4881170;29;20050;-86
2022/06/10 03:51:11;;;;;;;5.88;4.35;;;;;;;10.29;100.00;101325.91;4891110;29;20036;-84
2022/06/10 03:53:38;;;;;;;5.22;4.15;;;;;;;10.34;100.00;101324.09;4872507;29;20059;-85
2022/06/10 03:56:09;;;;;;;6.95;4.35;;;;;;;10.34;100.00;101330.28;4867905;29;20099;-84
2022/06/10 03:58:36;;;;;;;5.03;3.92;;;;;;;10.31;100.00;101335.56;4881919;29;20048;-83
2022/06/10 04:01:03;;;;;;;6.10;4.75;;;;;;;10.46;100.00;101336.31;4879212;29;20135;-86
2022/06/10 04:03:30;;;;;;;5.18;4.63;;;;;;;10.48;100.00;101337.19;4865030;29;20044;-84
2022/06/10 04:05:57;;;;;;;6.03;4.85;;;;;;;10.50;100.00;101341.53;4878173;29;20083;-85
2022/06/10 04:08:44;;;;;;;5.78;5.00;;;;;;;10.56;100.00;101344.16;4877836;29;20051;-84
2022/06/10 04:11:11;;;;;;;6.15;5.13;;;;;;;10.63;100.00;101356.41;4898366;29;20044;-84
2022/06/10 04:13:37;;;;;;;7.65;5.38;;;;;;;10.83;100.00;101355.31;4869587;29;20047;-84
2022/06/10 04:16:04;;;;;;;7.97;6.45;;;;;;;11.02;100.00;101362.19;4876421;29;20049;-84
2022/06/10 04:18:32;;;;;;;10.38;6.45;;;;;;;11.07;100.00;101359.47;4892635;29;20047;-85
2022/06/10 04:20:58;;;;;;;6.60;5.10;;;;;;;11.11;100.00;101358.56;4900654;29;20099;-84
2022/06/10 04:23:25;;;;;;;6.10;4.70;;;;;;;11.18;100.00;101353.19;4885932;29;20044;-85
2022/06/10 04:25:52;;;;;;;7.50;5.82;;;;;;;11.32;100.00;101360.06;4899762;29;20052;-85
2022/06/10 04:28:18;;;;;;;8.68;6.28;;;;;;;11.37;100.00;101360.91;4869045;29;20050;-83
2022/06/10 04:30:47;;;;;;;7.75;6.07;;;;;;;11.40;100.00;101350.25;4864579;29;20399;-84
2022/06/10 04:33:14;;;;;;;9.80;7.13;;;;;;;11.59;100.00;101357.06;4866424;29;20044;-84
2022/06/10 04:35:43;;;;;;;9.48;7.13;;;;;;;11.66;100.00;101356.06;4865439;29;20052;-84
2022/06/10 04:38:16;;;;;;;9.52;6.97;;;;;;;11.74;100.00;101358.63;4882322;29;20048;-84
2022/06/10 04:40:43;;;;;;;11.70;7.68;;;;;;;11.91;100.00;101361.06;4896995;29;20071;-85
2022/06/10 04:43:09;;;;;;;9.30;6.80;;;;;;;12.10;100.00;101363.41;4872261;29;20045;-84
2022/06/10 04:45:44;;;;;;;11.55;7.78;;;;;;;12.13;100.00;101359.84;4880804;29;20052;-86
2022/06/10 04:48:11;;;;;;;10.77;7.72;;;;;;;12.26;100.00;101371.09;4864668;29;20040;-86
2022/06/10 04:50:38;;;;;;;12.63;8.10;;;;;;;12.33;100.00;101368.34;4886460;29;20048;-85
2022/06/10 04:53:05;;;;;;;9.32;6.82;;;;;;;12.42;100.00;101377.03;4899304;29;20547;-84
2022/06/10 04:55:35;;;;;;;11.43;8.07;;;;;;;12.65;100.00;101369.56;4880680;29;20080;-85
2022/06/10 04:58:03;;;;;;;10.52;7.38;;;;;;;12.82;100.00;101378.09;4883158;29;20052;-86
2022/06/10 05:00:35;;;;;;;8.68;6.97;;;;;;;12.96;100.00;101375.19;4880928;29;20076;-84
2022/06/10 05:03:02;;;;;;;10.75;6.93;;;;;;;12.96;100.00;101381.38;4866724;29;20490;-84
2022/06/10 05:05:29;;;;;;;8.45;7.30;;;;;;;13.05;100.00;101388.28;4871957;29;20052;-86
2022/06/10 05:07:57;;;;;;;12.32;7.93;;;;;;;13.05;100.00;101390.94;4884784;29;20048;-84
2022/06/10 05:10:23;;;;;;;9.20;6.22;;;;;;;13.15;100.00;101391.63;4892020;29;20044;-84
2022/06/10 05:12:50;;;;;;;10.23;6.68;;;;;;;13.56;100.00;101397.91;4895592;29;20542;-84
2022/06/10 05:15:21;;;;;;;7.60;5.90;;;;;;;14.43;100.00;101388.81;4882254;29;20044;-84
2022/06/10 05:17:50;;;;;;;8.13;5.45;;;;;;;14.80;100.00;101391.47;4884667;29;20059;-84
2022/06/10 05:20:26;;;;;;;6.10;5.20;;;;;;;14.53;100.00;101381.50;4873576;29;20040;-84
2022/06/10 05:22:53;;;;;;;5.70;5.10;;;;;;;14.30;100.00;101387.38;4883907;29;20076;-83
2022/06/10 05:25:20;;;;;;;8.23;5.38;;;;;;;14.28;100.00;101387.41;4893329;29;20104;-83
2022/06/10 05:27:47;;;;;;;6.88;5.13;;;;;;;14.25;100.00;101389.28;4880800;29;20044;-83
2022/06/10 05:30:21;;;;;;;10.75;4.95;;;;;;;14.29;100.00;101391.84;4885177;29;20052;-84
2022/06/10 05:32:48;;;;;;;8.45;5.45;;;;;;;14.11;100.00;101402.00;4883617;29;20048;-82
2022/06/10 05:35:15;;;;;;;7.18;4.72;;;;;;;14.41;100.00;101398.63;4887264;29;20050;-82
2022/06/10 05:37:42;;;;;;;7.10;4.30;;;;;;;15.45;100.00;101391.41;4883170;29;20053;-84
2022/06/10 05:40:21;;;;;;;5.10;3.35;;;;;;;18.19;89.30;101387.34;4879352;29;20064;-82
2022/06/10 05:42:49;;;;;;;7.38;3.78;;;;;;;20.81;70.67;101382.47;4866239;29;20521;-83
2022/06/10 05:45:19;;;;;;;5.60;2.60;;;;;;;23.22;61.81;101402.97;4888051;29;20047;-83
2022/06/10 05:47:49;;;;;;;7.00;2.58;;;;;;;24.89;53.18;101395.72;4906842;29;20056;-83
2022/06/10 05:50:19;;;;;;;5.60;2.78;;;;;;;25.43;49.86;101406.38;4882546;29;20044;-82
2022/06/10 05:52:46;;;;;;;4.18;2.40;;;;;;;26.48;45.30;101403.25;4902153;29;20074;-84
2022/06/10 05:55:12;;;;;;;4.38;2.35;;;;;;;27.24;44.56;101402.78;4900857;29;20055;-86
2022/06/10 05:57:40;;;;;;;3.67;2.65;;;;;;;25.14;45.80;101409.31;4902763;29;20436;-84
2022/06/10 06:00:09;;;;;;;12.50;3.40;;;;;;;26.37;45.25;101404.03;4882095;29;20044;-84
2022/06/10 06:02:35;;;;;;;6.35;2.92;;;;;;;25.87;45.23;101410.47;4877793;29;20100;-83
2022/06/10 06:05:02;;;;;;;3.00;2.70;;;;;;;24.41;46.68;101409.75;4888942;29;20059;-83
2022/06/10 06:07:29;;;;;;;3.75;2.38;;;;;;;23.98;49.89;101422.47;4892476;29;20044;-82
2022/06/10 06:09:56;;;;;;;4.07;3.00;;;;;;;23.10;53.16;101420.75;4878678;29;20502;-84
2022/06/10 06:12:23;;;;;;;47.45;7.28;;;;;;;22.02;56.68;101421.66;4905913;29;20409;-84
2022/06/10 06:14:50;;;;;;;2.97;2.38;;;;;;;22.14;56.37;101418.31;4913891;29;20066;-83
2022/06/10 06:17:19;;;;;;;4.65;3.00;;;;;;;21.52;57.58;101418.09;4869029;29;20044;-85
2022/06/10 06:19:46;;;;;;;3.70;2.63;;;;;;;21.53;59.96;101424.38;4879403;29;20048;-83
2022/06/10 06:22:13;;;;;;;3.72;3.03;;;;;;;21.64;58.30;101419.28;4878207;29;20490;-84
2022/06/10 06:24:39;;;;;;;4.07;3.00;;;;;;;21.68;60.03;101417.28;4883387;29;20052;-83
2022/06/10 06:27:10;;;;;;;3.40;2.30;;;;;;;21.62;60.09;101421.19;4886035;29;20051;-84
2022/06/10 06:29:37;;;;;;;3.50;2.50;;;;;;;20.50;61.25;101420.72;4863267;29;20044;-83
2022/06/10 06:32:04;;;;;;;4.57;2.25;;;;;;;20.34;63.44;101425.06;4887306;29;20048;-85
2022/06/10 06:34:31;;;;;;;4.03;2.00;;;;;;;20.41;64.87;101426.53;4896890;29;20070;-84
2022/06/10 06:36:58;;;;;;;3.35;2.17;;;;;;;20.66;63.19;101432.44;4883797;29;20044;-84
2022/06/10 06:39:26;;;;;;;3.22;2.30;;;;;;;20.85;62.93;101424.34;4882392;29;20044;-84
2022/06/10 06:41:53;;;;;;;4.63;2.80;;;;;;;20.55;62.42;101426.75;4883439;29;20044;-83
2022/06/10 06:44:20;;;;;;;7.18;2.30;;;;;;;20.93;62.07;101421.25;4882439;29;20044;-82
2022/06/10 06:46:47;;;;;;;4.20;2.47;;;;;;;20.87;60.40;101426.94;4884165;29;20098;-82
2022/06/10 06:49:23;;;;;;;4.07;1.90;;;;;;;20.44;60.31;101423.75;4882212;29;20048;-84
2022/06/10 06:51:50;;;;;;;3.70;1.55;;;;;;;20.76;58.89;101430.16;4883569;29;20040;-83
2022/06/10 06:54:17;;;;;;;1.80;1.70;;;;;;;21.14;59.58;101425.50;4881863;29;20048;-81
2022/06/10 06:56:44;;;;;;;2.72;1.90;;;;;;;21.51;55.20;101435.19;4898049;29;20048;-83
2022/06/10 06:59:10;;;;;;;4.13;2.50;;;;;;;21.71;56.08;101433.28;4881109;29;20044;-82
2022/06/10 07:01:37;;;;;;;3.30;2.00;;;;;;;21.69;56.42;101429.78;4897664;29;20044;-83
2022/06/10 07:04:05;;;;;;;3.28;2.33;;;;;;;21.95;57.74;101436.44;4880743;29;20044;-83
2022/06/10 07:06:35;;;;;;;2.85;1.92;;;;;;;21.57;55.31;101444.75;4898087;29;20052;-83
2022/06/10 07:09:03;;;;;;;8.02;2.88;;;;;;;21.99;54.67;101441.53;4893980;29;20052;-83
2022/06/10 07:11:31;;;;;;;4.28;1.90;;;;;;;21.80;53.79;101432.75;4879446;29;20048;-83
2022/06/10 07:13:57;;;;;;;3.53;2.20;;;;;;;21.96;53.99;101436.34;4847531;29;20081;-82
2022/06/10 07:16:24;;;;;;;2.63;1.60;;;;;;;22.28;51.57;101445.34;4864257;29;20135;-85
2022/06/10 07:18:52;;;;;;;2.42;2.00;;;;;;;22.29;50.93;101451.59;4895615;29;20864;-83
2022/06/10 07:21:19;;;;;;;3.28;1.77;;;;;;;22.14;52.30;101445.25;4889878;29;20498;-82
2022/06/10 07:23:46;;;;;;;2.67;2.05;;;;;;;22.30;49.20;101447.94;4881451;29;20116;-83
2022/06/10 07:26:12;;;;;;;3.80;2.03;;;;;;;22.32;48.71;101449.56;4854409;29;20053;-82
2022/06/10 07:28:39;;;;;;;3.97;1.55;;;;;;;22.91;46.79;101442.56;4874735;29;20049;-82
2022/06/10 07:31:06;;;;;;;2.08;1.60;;;;;;;22.86;45.70;101451.88;4879947;29;20040;-81
2022/06/10 07:33:35;;;;;;;2.05;1.50;;;;;;;22.99;44.77;101456.44;4890080;29;20037;-85
2022/06/10 07:36:06;;;;;;;5.13;2.38;;;;;;;23.09;45.39;101451.38;4895205;29;20451;-83
2022/06/10 07:38:34;;;;;;;2.65;1.70;;;;;;;22.92;44.69;101455.06;4863932;29;20068;-82
2022/06/10 07:43:46;;;;;;;2.60;1.60;;;;;;;22.48;46.18;101450.44;4895616;29;20437;-84
2022/06/10 07:46:18;;;;;;;2.60;1.90;;;;;;;22.84;44.47;101461.84;4879504;29;20594;-80
2022/06/10 07:48:45;;;;;;;3.00;1.90;;;;;;;22.24;44.80;101462.59;4878258;29;20037;-82
2022/06/10 07:51:12;;;;;;;2.00;1.70;;;;;;;22.57;45.39;101453.56;4879053;29;20053;-83
2022/06/10 07:53:41;;;;;;;2.95;1.77;;;;;;;22.71;42.67;101464.41;4886431;29;20048;-84
2022/06/10 07:56:09;;;;;;;2.38;1.50;;;;;;;23.01;45.45;101467.13;4871416;29;20577;-83
2022/06/10 07:58:36;;;;;;;2.60;1.40;;;;;;;23.10;44.62;101457.63;4889635;29;20554;-81
2022/06/10 08:01:03;;;;;;;2.28;1.40;;;;;;;23.11;42.95;101462.91;4893989;29;20091;-82
2022/06/10 08:03:29;;;;;;;3.42;1.52;;;;;;;22.36;42.29;101461.03;4881262;29;20103;-82
2022/06/10 08:05:58;;;;;;;3.42;1.60;;;;;;;22.65;43.25;101456.66;4877178;29;20058;-83
2022/06/10 08:08:25;;;;;;;2.85;1.90;;;;;;;22.87;43.04;101464.38;4873006;29;20048;-85
2022/06/10 08:10:51;;;;;;;104.93;15.27;;;;;;;23.40;42.99;101457.59;4895927;29;20454;-81
2022/06/10 08:13:19;;;;;;;1.73;1.52;;;;;;;23.41;42.61;101457.50;4880515;29;20052;-83
2022/06/10 08:15:47;;;;;;;3.13;1.70;;;;;;;23.20;41.42;101458.78;4875370;29;20063;-82
2022/06/10 08:18:16;;;;;;;2.45;1.73;;;;;;;23.49;41.92;101457.91;4904746;29;20046;-82
2022/06/10 08:23:30;;;;;;;5.65;2.05;;;;;;;23.94;41.46;101452.44;4918413;29;20043;-83
2022/06/10 08:25:58;;;;;;;4.65;1.80;;;;;;;24.21;42.37;101463.28;4899538;29;20433;-83
2022/06/10 08:28:26;;;;;;;3.55;1.88;;;;;;;24.26;41.26;101455.75;4916184;29;20040;-81
2022/06/10 08:30:53;;;;;;;3.08;1.77;;;;;;;23.33;41.26;101453.53;4882932;29;20051;-82
2022/06/10 08:33:19;;;;;;;3.00;1.67;;;;;;;23.77;43.14;101456.19;4900997;29;20081;-83
2022/06/10 08:35:46;;;;;;;1.90;1.35;;;;;;;23.97;43.10;101452.25;4861791;29;20131;-82
2022/06/10 08:38:15;;;;;;;2.70;2.05;;;;;;;24.44;41.28;101454.59;4878481;29;20040;-84
2022/06/10 08:40:54;;;;;;;6.38;2.38;;;;;;;24.63;39.33;101460.47;4862769;29;20068;-83
2022/06/10 08:43:39;;;;;;;6.05;1.80;;;;;;;24.41;38.48;101460.19;4910974;29;20040;-83
2022/06/10 08:46:28;;;;;;;2.90;1.73;;;;;;;24.58;38.98;101451.84;4915777;29;20047;-85
2022/06/10 08:49:28;;;;;;;3.45;2.00;;;;;;;24.06;40.28;101466.03;4899861;29;20751;-82
2022/06/10 08:52:28;;;;;;;3.65;1.65;;;;;;;24.17;39.15;101462.63;4893380;29;20143;-84
2022/06/10 08:55:04;;;;;;;3.85;1.65;;;;;;;24.47;39.65;101464.31;4863110;29;20088;-81
2022/06/10 08:57:41;;;;;;;5.18;1.98;;;;;;;24.47;40.47;101465.22;4914846;29;20086;-82
2022/06/10 09:00:23;;;;;;;3.72;1.77;;;;;;;24.68;38.20;101452.94;4883969;29;20051;-82
2022/06/10 09:02:56;;;;;;;2.13;1.30;;;;;;;25.03;39.07;101460.53;4870857;29;20051;-83
2022/06/10 09:05:28;;;;;;;5.53;2.08;;;;;;;25.35;38.59;101457.47;4880963;29;20048;-82
2022/06/10 09:08:23;;;;;;;4.93;1.65;;;;;;;25.54;37.42;101457.88;4868187;29;20173;-83
2022/06/10 09:11:02;;;;;;;4.32;1.70;;;;;;;25.02;37.06;101456.06;4880535;29;20102;-82
2022/06/10 09:13:34;;;;;;;2.05;1.58;;;;;;;25.36;38.82;101460.06;4877073;29;20442;-86
2022/06/10 09:16:09;;;;;;;6.13;2.33;;;;;;;24.99;38.07;101451.75;4899743;29;20091;-82
2022/06/10 09:18:45;;;;;;;5.07;2.13;;;;;;;24.42;36.89;101461.94;4854102;29;20119;-83
2022/06/10 09:21:19;;;;;;;4.63;2.10;;;;;;;24.73;37.66;101457.19;4897153;29;20044;-84
2022/06/10 09:23:46;;;;;;;1.92;1.52;;;;;;;24.87;36.98;101457.09;4880029;29;20044;-83
2022/06/10 09:26:19;;;;;;;3.08;1.50;;;;;;;25.10;36.44;101459.16;4909589;29;20048;-83
2022/06/10 09:28:46;;;;;;;2.28;1.70;;;;;;;25.47;35.46;101454.75;4884958;29;20048;-83
2022/06/10 09:31:31;;;;;;;3.15;1.40;;;;;;;25.27;35.67;101448.03;4887173;29;20048;-82
2022/06/10 09:34:29;;;;;;;5.18;1.95;;;;;;;25.54;37.64;101450.63;4879941;29;20044;-82
2022/06/10 09:37:14;;;;;;;3.00;1.65;;;;;;;25.53;35.74;101461.56;4866825;29;20395;-82
2022/06/10 09:43:15;;;;;;;2.50;1.38;;;;;;;26.36;34.59;101462.75;4903530;29;20139;-80
2022/06/10 09:46:15;;;;;;;3.90;2.10;;;;;;;26.34;33.01;101472.00;4873009;29;20120;-80
2022/06/10 09:49:03;;;;;;;2.70;1.55;;;;;;;26.24;33.90;101458.28;4903008;29;20055;-82
2022/06/10 09:51:58;;;;;;;3.47;1.77;;;;;;;26.29;35.17;101466.91;4885305;29;20044;-81
2022/06/10 09:54:43;;;;;;;3.38;1.42;;;;;;;26.56;33.72;101468.56;4894354;29;20040;-80
2022/06/10 09:57:34;;;;;;;3.22;1.40;;;;;;;26.46;34.08;101473.81;4912725;29;20048;-82
2022/06/10 10:00:12;;;;;;;6.45;1.83;;;;;;;26.35;32.53;101477.28;4889657;29;20417;-80
2022/06/10 10:03:03;;;;;;;2.40;1.70;;;;;;;26.60;33.21;101462.81;4893992;29;20036;-78
2022/06/10 10:05:41;;;;;;;3.85;1.75;;;;;;;26.89;33.62;101459.72;4894590;29;20036;-81
2022/06/10 10:08:23;;;;;;;2.42;1.50;;;;;;;26.86;32.33;101455.41;4882002;29;20040;-81
2022/06/10 10:10:56;;;;;;;3.72;1.50;;;;;;;26.94;33.27;101458.41;4880172;29;20044;-81
2022/06/10 10:13:33;;;;;;;4.43;1.67;;;;;;;26.68;32.01;101450.53;4882398;29;20048;-81
2022/06/10 10:16:25;;;;;;;15.77;2.42;;;;;;;25.40;34.59;101452.59;4885239;29;20052;-81
2022/06/10 10:19:13;;;;;;;4.35;1.55;;;;;;;25.86;34.76;101452.06;4879549;29;20513;-81
2022/06/10 10:21:52;;;;;;;3.03;1.40;;;;;;;25.78;33.07;101460.72;4905445;29;20456;-81
2022/06/10 10:24:26;;;;;;;4.68;1.73;;;;;;;25.90;34.17;101445.47;4876526;29;20040;-82
2022/06/10 10:26:53;;;;;;;2.35;1.80;;;;;;;25.68;35.16;101454.22;4885889;29;20052;-81
2022/06/10 10:29:23;;;;;;;3.97;2.28;;;;;;;24.37;34.57;101464.91;4884467;29;20404;-81
2022/06/10 10:31:53;;;;;;;4.65;1.77;;;;;;;24.31;35.25;101459.03;4901250;29;20055;-81
2022/06/10 10:34:22;;;;;;;1.95;1.30;;;;;;;24.87;36.01;101454.41;4893003;29;20100;-81
2022/06/10 10:36:57;;;;;;;3.10;1.75;;;;;;;25.51;34.60;101453.56;4899372;29;20062;-82
2022/06/10 10:39:50;;;;;;;3.65;1.70;;;;;;;25.26;33.93;101450.84;4915534;29;20063;-80
2022/06/10 10:42:30;;;;;;;2.67;1.70;;;;;;;25.24;35.08;101448.25;4921519;29;20044;-81
2022/06/10 10:45:04;;;;;;;2.38;1.70;;;;;;;25.60;35.11;101446.63;4894157;29;20056;-82
2022/06/10 10:47:32;;;;;;;3.83;1.63;;;;;;;25.86;34.29;101441.22;4888093;29;20056;-81
2022/06/10 10:49:58;;;;;;;4.22;2.00;;;;;;;26.08;33.85;101444.13;4893269;29;20399;-81
2022/06/10 10:52:38;;;;;;;2.42;1.48;;;;;;;26.12;32.93;101437.47;4901521;29;20609;-81
2022/06/10 10:55:14;;;;;;;4.47;1.30;;;;;;;26.09;33.61;101444.00;4882610;29;20032;-81
2022/06/10 10:57:50;;;;;;;4.20;1.85;;;;;;;26.61;32.34;101439.28;4915325;29;20040;-80
2022/06/10 11:00:17;;;;;;;4.28;1.60;;;;;;;26.61;33.27;101450.13;4894089;29;20044;-82
2022/06/10 11:02:47;;;;;;;2.15;1.65;;;;;;;26.49;32.85;101440.22;4899754;29;20044;-83
2022/06/10 11:05:35;;;;;;;2.13;1.42;;;;;;;26.82;33.49;101445.81;4890619;29;20052;-80
2022/06/10 11:08:29;;;;;;;4.85;1.85;;;;;;;26.40;33.85;101452.59;4883900;29;20044;-81
2022/06/10 11:11:00;;;;;;;2.35;1.45;;;;;;;26.61;32.93;101439.28;4895259;29;20232;-81
2022/06/10 11:13:45;;;;;;;2.97;1.35;;;;;;;27.05;31.60;101443.19;4881862;29;20052;-81
2022/06/10 11:16:36;;;;;;;4.65;1.42;;;;;;;27.30;31.22;101451.13;4868345;29;20044;-82
2022/06/10 11:19:18;;;;;;;4.60;1.60;;;;;;;27.23;31.17;101447.16;4890175;29;20053;-79
2022/06/10 11:21:49;;;;;;;1.92;1.30;;;;;;;27.38;30.42;101435.13;4875575;29;20067;-79
2022/06/10 11:24:18;;;;;;;3.67;1.63;;;;;;;27.24;30.43;101443.47;4886589;29;20040;-82
2022/06/10 11:26:50;;;;;;;3.95;1.98;;;;;;;27.47;30.38;101449.81;4885202;29;20096;-82
2022/06/10 11:29:17;;;;;;;2.60;1.55;;;;;;;27.45;30.25;101435.50;4890852;29;20051;-81
2022/06/10 14:03:04;;;;;;;2.45;1.20;;;;;;;26.39;28.29;101356.03;4908418;29;20751;-82
2022/06/10 14:05:32;;;;;;;1.70;1.17;;;;;;;26.28;29.12;101350.53;4875119;29;20048;-80
2022/06/10 14:08:00;;;;;;;1.85;1.25;;;;;;;26.46;30.00;101343.75;4897845;29;20048;-81
2022/06/10 14:10:31;;;;;;;2.55;1.15;;;;;;;26.65;29.28;101348.63;4883695;29;20103;-80
2022/06/10 14:13:06;;;;;;;5.38;1.30;;;;;;;26.87;29.67;101353.25;4881193;29;20052;-82
2022/06/10 14:15:37;;;;;;;1.77;1.27;;;;;;;26.87;28.74;101350.53;4896955;29;20538;-81
2022/06/10 14:18:17;;;;;;;2.97;1.40;;;;;;;26.37;28.12;101348.00;4894414;29;20115;-81
2022/06/10 14:20:44;;;;;;;2.05;1.40;;;;;;;26.78;27.72;101354.81;4880230;29;20449;-82
2022/06/10 14:23:31;;;;;;;2.10;1.90;;;;;;;26.58;27.66;101347.38;4882582;29;20040;-82
2022/06/10 14:26:10;;;;;;;1.80;1.20;;;;;;;26.93;28.01;101344.63;4886481;29;20088;-82
2022/06/10 14:28:41;;;;;;;2.13;1.30;;;;;;;27.16;28.13;101343.72;4897451;29;20044;-82
2022/06/10 14:31:30;;;;;;;1.73;1.20;;;;;;;27.20;27.71;101344.34;4865880;29;20054;-81
2022/06/10 14:33:59;;;;;;;3.40;1.52;;;;;;;27.24;27.02;101350.38;4868202;29;20060;-81